sensor_id;sensor_type;location;lat;lon;timestamp;temperature;humidity
80230;DHT22;69540;42.136;24.742;2023-10-08T00:01:15;26.60;28.90
80230;DHT22;69540;42.136;24.742;2023-10-08T00:03:48;26.50;28.80
80230;DHT22;69540;42.136;24.742;2023-10-08T00:06:18;26.60;29.10
80230;DHT22;69540;42.136;24.742;2023-10-08T00:08:47;26.60;28.90
80230;DHT22;69540;42.136;24.742;2023-10-08T00:11:14;26.60;28.80
80230;DHT22;69540;42.136;24.742;2023-10-08T00:13:41;26.60;28.80
80230;DHT22;69540;42.136;24.742;2023-10-08T00:16:08;26.60;28.80
80230;DHT22;69540;42.136;24.742;2023-10-08T00:18:41;26.60;28.80
80230;DHT22;69540;42.136;24.742;2023-10-08T00:21:15;26.60;28.80
80230;DHT22;69540;42.136;24.742;2023-10-08T00:23:40;26.60;28.70
80230;DHT22;69540;42.136;24.742;2023-10-08T00:26:08;26.60;28.70
80230;DHT22;69540;42.136;24.742;2023-10-08T00:28:34;26.60;28.70
80230;DHT22;69540;42.136;24.742;2023-10-08T00:31:02;26.60;28.70
80230;DHT22;69540;42.136;24.742;2023-10-08T00:33:37;26.60;28.60
80230;DHT22;69540;42.136;24.742;2023-10-08T00:36:03;26.60;28.60
80230;DHT22;69540;42.136;24.742;2023-10-08T00:38:43;26.60;28.70
80230;DHT22;69540;42.136;24.742;2023-10-08T00:41:13;26.60;28.60
80230;DHT22;69540;42.136;24.742;2023-10-08T00:43:40;26.60;28.60
80230;DHT22;69540;42.136;24.742;2023-10-08T00:46:07;26.60;28.60
80230;DHT22;69540;42.136;24.742;2023-10-08T00:48:55;26.60;28.70
80230;DHT22;69540;42.136;24.742;2023-10-08T00:51:22;26.60;28.60
80230;DHT22;69540;42.136;24.742;2023-10-08T00:54:03;26.60;28.60
80230;DHT22;69540;42.136;24.742;2023-10-08T00:56:36;26.60;28.60
80230;DHT22;69540;42.136;24.742;2023-10-08T00:59:23;26.60;28.60
80230;DHT22;69540;42.136;24.742;2023-10-08T01:01:51;26.60;28.70
80230;DHT22;69540;42.136;24.742;2023-10-08T01:04:18;26.60;28.70
80230;DHT22;69540;42.136;24.742;2023-10-08T01:06:53;26.60;28.60
80230;DHT22;69540;42.136;24.742;2023-10-08T01:09:25;26.60;28.70
80230;DHT22;69540;42.136;24.742;2023-10-08T01:15:04;26.60;28.60
80230;DHT22;69540;42.136;24.742;2023-10-08T01:17:52;26.60;28.70
80230;DHT22;69540;42.136;24.742;2023-10-08T01:20:29;26.60;28.60
80230;DHT22;69540;42.136;24.742;2023-10-08T01:23:00;26.50;28.60
80230;DHT22;69540;42.136;24.742;2023-10-08T01:25:36;26.50;28.50
80230;DHT22;69540;42.136;24.742;2023-10-08T01:28:01;26.60;28.60
80230;DHT22;69540;42.136;24.742;2023-10-08T01:30:34;26.60;28.50
80230;DHT22;69540;42.136;24.742;2023-10-08T01:33:01;26.50;28.50
80230;DHT22;69540;42.136;24.742;2023-10-08T01:35:28;26.60;28.50
80230;DHT22;69540;42.136;24.742;2023-10-08T01:37:57;26.60;28.50
80230;DHT22;69540;42.136;24.742;2023-10-08T01:40:25;26.60;28.50
80230;DHT22;69540;42.136;24.742;2023-10-08T01:42:51;26.50;28.40
80230;DHT22;69540;42.136;24.742;2023-10-08T01:45:17;26.60;28.50
80230;DHT22;69540;42.136;24.742;2023-10-08T01:47:44;26.60;28.50
80230;DHT22;69540;42.136;24.742;2023-10-08T01:50:10;26.60;28.50
80230;DHT22;69540;42.136;24.742;2023-10-08T01:52:49;26.60;28.50
80230;DHT22;69540;42.136;24.742;2023-10-08T01:55:14;26.60;28.50
80230;DHT22;69540;42.136;24.742;2023-10-08T01:57:45;26.60;29.30
80230;DHT22;69540;42.136;24.742;2023-10-08T02:00:11;26.50;28.30
80230;DHT22;69540;42.136;24.742;2023-10-08T02:02:38;26.60;28.30
80230;DHT22;69540;42.136;24.742;2023-10-08T02:05:06;26.60;28.30
80230;DHT22;69540;42.136;24.742;2023-10-08T02:07:32;26.50;28.20
80230;DHT22;69540;42.136;24.742;2023-10-08T02:09:59;26.60;28.20
80230;DHT22;69540;42.136;24.742;2023-10-08T02:12:25;26.50;28.20
80230;DHT22;69540;42.136;24.742;2023-10-08T02:14:51;26.50;28.10
80230;DHT22;69540;42.136;24.742;2023-10-08T02:17:16;26.50;28.10
80230;DHT22;69540;42.136;24.742;2023-10-08T02:19:43;26.50;28.10
80230;DHT22;69540;42.136;24.742;2023-10-08T02:22:08;26.50;28.10
80230;DHT22;69540;42.136;24.742;2023-10-08T02:24:37;26.60;28.20
80230;DHT22;69540;42.136;24.742;2023-10-08T02:27:03;26.60;28.10
80230;DHT22;69540;42.136;24.742;2023-10-08T02:29:30;26.60;28.10
80230;DHT22;69540;42.136;24.742;2023-10-08T02:31:56;26.60;28.10
80230;DHT22;69540;42.136;24.742;2023-10-08T02:34:22;26.50;28.00
80230;DHT22;69540;42.136;24.742;2023-10-08T02:36:47;26.50;28.00
80230;DHT22;69540;42.136;24.742;2023-10-08T02:39:14;26.50;28.00
80230;DHT22;69540;42.136;24.742;2023-10-08T02:41:43;26.50;28.00
80230;DHT22;69540;42.136;24.742;2023-10-08T02:44:16;26.50;28.00
80230;DHT22;69540;42.136;24.742;2023-10-08T02:46:49;26.50;27.90
80230;DHT22;69540;42.136;24.742;2023-10-08T02:49:16;26.50;27.90
80230;DHT22;69540;42.136;24.742;2023-10-08T02:51:52;26.50;28.00
80230;DHT22;69540;42.136;24.742;2023-10-08T02:54:19;26.60;28.00
80230;DHT22;69540;42.136;24.742;2023-10-08T02:56:56;26.50;27.90
80230;DHT22;69540;42.136;24.742;2023-10-08T02:59:29;26.50;27.90
80230;DHT22;69540;42.136;24.742;2023-10-08T03:02:04;26.50;27.90
80230;DHT22;69540;42.136;24.742;2023-10-08T03:04:30;26.40;27.90
80230;DHT22;69540;42.136;24.742;2023-10-08T03:06:56;26.50;27.90
80230;DHT22;69540;42.136;24.742;2023-10-08T03:09:22;26.50;27.90
80230;DHT22;69540;42.136;24.742;2023-10-08T03:11:57;26.50;27.80
80230;DHT22;69540;42.136;24.742;2023-10-08T03:14:24;26.50;27.80
80230;DHT22;69540;42.136;24.742;2023-10-08T03:16:53;26.50;27.80
80230;DHT22;69540;42.136;24.742;2023-10-08T03:19:21;26.50;27.80
80230;DHT22;69540;42.136;24.742;2023-10-08T03:21:48;26.50;27.70
80230;DHT22;69540;42.136;24.742;2023-10-08T03:24:17;26.50;27.60
80230;DHT22;69540;42.136;24.742;2023-10-08T03:26:59;26.50;27.60
80230;DHT22;69540;42.136;24.742;2023-10-08T03:29:57;26.50;27.50
80230;DHT22;69540;42.136;24.742;2023-10-08T03:32:24;26.50;27.60
80230;DHT22;69540;42.136;24.742;2023-10-08T03:34:52;26.50;27.60
80230;DHT22;69540;42.136;24.742;2023-10-08T03:37:22;26.50;27.50
80230;DHT22;69540;42.136;24.742;2023-10-08T03:39:54;26.50;27.50
80230;DHT22;69540;42.136;24.742;2023-10-08T03:42:33;26.50;27.50
80230;DHT22;69540;42.136;24.742;2023-10-08T03:45:06;26.50;27.50
80230;DHT22;69540;42.136;24.742;2023-10-08T03:47:41;26.50;27.50
80230;DHT22;69540;42.136;24.742;2023-10-08T03:50:11;26.50;27.50
80230;DHT22;69540;42.136;24.742;2023-10-08T03:52:42;26.50;27.40
80230;DHT22;69540;42.136;24.742;2023-10-08T03:55:09;26.50;27.40
80230;DHT22;69540;42.136;24.742;2023-10-08T03:57:40;26.50;27.40
80230;DHT22;69540;42.136;24.742;2023-10-08T04:00:13;26.50;27.40
80230;DHT22;69540;42.136;24.742;2023-10-08T04:02:43;26.50;27.40
80230;DHT22;69540;42.136;24.742;2023-10-08T04:05:20;26.50;27.40
80230;DHT22;69540;42.136;24.742;2023-10-08T04:07:47;26.50;28.30
80230;DHT22;69540;42.136;24.742;2023-10-08T04:10:25;26.50;27.40
80230;DHT22;69540;42.136;24.742;2023-10-08T04:13:06;26.50;27.30
80230;DHT22;69540;42.136;24.742;2023-10-08T04:15:38;26.50;27.30
80230;DHT22;69540;42.136;24.742;2023-10-08T04:18:07;26.50;27.30
80230;DHT22;69540;42.136;24.742;2023-10-08T04:20:34;26.50;27.30
80230;DHT22;69540;42.136;24.742;2023-10-08T04:23:08;26.50;27.30
80230;DHT22;69540;42.136;24.742;2023-10-08T04:25:44;26.50;27.30
80230;DHT22;69540;42.136;24.742;2023-10-08T04:28:10;26.50;27.30
80230;DHT22;69540;42.136;24.742;2023-10-08T04:30:46;26.50;27.30
80230;DHT22;69540;42.136;24.742;2023-10-08T04:33:14;26.50;27.30
80230;DHT22;69540;42.136;24.742;2023-10-08T04:35:43;26.40;27.20
80230;DHT22;69540;42.136;24.742;2023-10-08T04:38:24;26.50;27.20
80230;DHT22;69540;42.136;24.742;2023-10-08T04:40:52;26.50;27.20
80230;DHT22;69540;42.136;24.742;2023-10-08T04:43:22;26.40;27.10
80230;DHT22;69540;42.136;24.742;2023-10-08T04:45:51;26.50;27.10
80230;DHT22;69540;42.136;24.742;2023-10-08T04:48:17;26.50;27.10
80230;DHT22;69540;42.136;24.742;2023-10-08T04:50:49;26.40;27.10
80230;DHT22;69540;42.136;24.742;2023-10-08T04:53:28;26.50;27.10
80230;DHT22;69540;42.136;24.742;2023-10-08T04:56:14;26.50;27.10
80230;DHT22;69540;42.136;24.742;2023-10-08T04:58:46;26.40;27.10
80230;DHT22;69540;42.136;24.742;2023-10-08T05:01:21;26.40;27.00
80230;DHT22;69540;42.136;24.742;2023-10-08T05:03:54;26.50;27.10
80230;DHT22;69540;42.136;24.742;2023-10-08T05:06:30;26.50;27.10
80230;DHT22;69540;42.136;24.742;2023-10-08T05:09:05;26.40;27.00
80230;DHT22;69540;42.136;24.742;2023-10-08T05:11:38;26.40;27.00
80230;DHT22;69540;42.136;24.742;2023-10-08T05:14:23;26.40;27.00
80230;DHT22;69540;42.136;24.742;2023-10-08T05:16:58;26.40;27.00
80230;DHT22;69540;42.136;24.742;2023-10-08T05:19:48;26.40;27.00
80230;DHT22;69540;42.136;24.742;2023-10-08T05:22:36;26.40;27.00
80230;DHT22;69540;42.136;24.742;2023-10-08T05:25:02;26.40;27.00
80230;DHT22;69540;42.136;24.742;2023-10-08T05:27:53;26.40;27.00
80230;DHT22;69540;42.136;24.742;2023-10-08T05:30:26;26.40;27.00
80230;DHT22;69540;42.136;24.742;2023-10-08T05:33:07;26.40;27.00
80230;DHT22;69540;42.136;24.742;2023-10-08T05:35:44;26.40;26.90
80230;DHT22;69540;42.136;24.742;2023-10-08T05:38:13;26.40;26.90
80230;DHT22;69540;42.136;24.742;2023-10-08T05:40:45;26.40;26.90
80230;DHT22;69540;42.136;24.742;2023-10-08T05:43:34;26.40;26.90
80230;DHT22;69540;42.136;24.742;2023-10-08T05:51:41;26.40;26.90
80230;DHT22;69540;42.136;24.742;2023-10-08T05:54:15;26.40;27.70
80230;DHT22;69540;42.136;24.742;2023-10-08T05:57:14;26.40;26.90
80230;DHT22;69540;42.136;24.742;2023-10-08T05:59:50;26.50;26.90
80230;DHT22;69540;42.136;24.742;2023-10-08T06:02:26;26.40;27.00
80230;DHT22;69540;42.136;24.742;2023-10-08T06:05:06;26.40;27.00
80230;DHT22;69540;42.136;24.742;2023-10-08T06:07:50;26.40;27.00
80230;DHT22;69540;42.136;24.742;2023-10-08T06:10:36;26.40;27.00
80230;DHT22;69540;42.136;24.742;2023-10-08T06:13:11;26.50;26.90
80230;DHT22;69540;42.136;24.742;2023-10-08T06:16:10;26.50;27.00
80230;DHT22;69540;42.136;24.742;2023-10-08T06:18:39;26.40;27.00
80230;DHT22;69540;42.136;24.742;2023-10-08T06:21:06;26.40;27.00
80230;DHT22;69540;42.136;24.742;2023-10-08T06:23:37;26.40;27.00
80230;DHT22;69540;42.136;24.742;2023-10-08T06:26:04;26.40;27.00
80230;DHT22;69540;42.136;24.742;2023-10-08T06:28:39;26.50;27.00
80230;DHT22;69540;42.136;24.742;2023-10-08T06:31:06;26.50;27.00
80230;DHT22;69540;42.136;24.742;2023-10-08T06:33:39;26.50;27.00
80230;DHT22;69540;42.136;24.742;2023-10-08T06:36:06;26.50;27.00
80230;DHT22;69540;42.136;24.742;2023-10-08T06:38:42;26.50;27.10
80230;DHT22;69540;42.136;24.742;2023-10-08T06:41:11;26.50;27.10
80230;DHT22;69540;42.136;24.742;2023-10-08T06:43:44;26.50;27.10
80230;DHT22;69540;42.136;24.742;2023-10-08T06:46:28;26.50;27.10
80230;DHT22;69540;42.136;24.742;2023-10-08T06:48:58;26.50;27.10
80230;DHT22;69540;42.136;24.742;2023-10-08T06:51:24;26.50;27.10
80230;DHT22;69540;42.136;24.742;2023-10-08T06:53:51;26.50;27.10
80230;DHT22;69540;42.136;24.742;2023-10-08T06:56:19;26.50;27.10
80230;DHT22;69540;42.136;24.742;2023-10-08T06:58:46;26.50;27.10
80230;DHT22;69540;42.136;24.742;2023-10-08T07:01:19;26.50;27.10
80230;DHT22;69540;42.136;24.742;2023-10-08T07:03:48;26.50;27.10
80230;DHT22;69540;42.136;24.742;2023-10-08T07:06:18;26.50;27.00
80230;DHT22;69540;42.136;24.742;2023-10-08T07:08:57;26.50;27.00
80230;DHT22;69540;42.136;24.742;2023-10-08T07:11:25;26.50;27.00
80230;DHT22;69540;42.136;24.742;2023-10-08T07:13:52;26.50;27.00
80230;DHT22;69540;42.136;24.742;2023-10-08T07:16:18;26.50;27.00
80230;DHT22;69540;42.136;24.742;2023-10-08T07:18:46;26.50;27.00
80230;DHT22;69540;42.136;24.742;2023-10-08T07:21:19;26.50;27.00
80230;DHT22;69540;42.136;24.742;2023-10-08T07:23:54;26.50;27.00
80230;DHT22;69540;42.136;24.742;2023-10-08T07:26:27;26.50;27.00
80230;DHT22;69540;42.136;24.742;2023-10-08T07:29:02;26.50;26.90
80230;DHT22;69540;42.136;24.742;2023-10-08T07:31:33;26.50;26.90
80230;DHT22;69540;42.136;24.742;2023-10-08T07:34:00;26.50;27.00
80230;DHT22;69540;42.136;24.742;2023-10-08T07:36:45;26.50;26.90
80230;DHT22;69540;42.136;24.742;2023-10-08T07:39:13;26.50;26.90
80230;DHT22;69540;42.136;24.742;2023-10-08T07:42:00;26.50;26.90
80230;DHT22;69540;42.136;24.742;2023-10-08T07:44:26;26.50;26.80
80230;DHT22;69540;42.136;24.742;2023-10-08T07:46:56;26.50;26.90
80230;DHT22;69540;42.136;24.742;2023-10-08T07:49:25;26.50;26.80
80230;DHT22;69540;42.136;24.742;2023-10-08T07:51:51;26.50;26.80
80230;DHT22;69540;42.136;24.742;2023-10-08T07:54:24;26.50;26.80
80230;DHT22;69540;42.136;24.742;2023-10-08T07:56:53;26.50;26.80
80230;DHT22;69540;42.136;24.742;2023-10-08T07:59:41;26.50;26.60
80230;DHT22;69540;42.136;24.742;2023-10-08T08:02:08;26.50;26.70
80230;DHT22;69540;42.136;24.742;2023-10-08T08:04:38;26.50;26.70
80230;DHT22;69540;42.136;24.742;2023-10-08T08:07:06;26.50;26.80
80230;DHT22;69540;42.136;24.742;2023-10-08T08:09:31;26.50;26.70
80230;DHT22;69540;42.136;24.742;2023-10-08T08:12:06;26.50;26.70
80230;DHT22;69540;42.136;24.742;2023-10-08T08:14:36;26.50;26.70
80230;DHT22;69540;42.136;24.742;2023-10-08T08:17:05;26.50;26.60
80230;DHT22;69540;42.136;24.742;2023-10-08T08:19:42;26.50;26.50
80230;DHT22;69540;42.136;24.742;2023-10-08T08:22:13;26.50;26.50
80230;DHT22;69540;42.136;24.742;2023-10-08T08:24:54;26.50;26.50
80230;DHT22;69540;42.136;24.742;2023-10-08T08:27:32;26.50;26.40
80230;DHT22;69540;42.136;24.742;2023-10-08T08:29:58;26.50;26.50
80230;DHT22;69540;42.136;24.742;2023-10-08T08:32:36;26.50;26.50
80230;DHT22;69540;42.136;24.742;2023-10-08T08:35:08;26.50;26.50
80230;DHT22;69540;42.136;24.742;2023-10-08T08:37:37;26.50;26.40
80230;DHT22;69540;42.136;24.742;2023-10-08T08:40:07;26.50;26.40
80230;DHT22;69540;42.136;24.742;2023-10-08T08:42:47;26.50;26.30
80230;DHT22;69540;42.136;24.742;2023-10-08T08:45:18;26.50;26.30
80230;DHT22;69540;42.136;24.742;2023-10-08T08:47:46;26.50;26.20
80230;DHT22;69540;42.136;24.742;2023-10-08T08:50:11;26.50;26.30
80230;DHT22;69540;42.136;24.742;2023-10-08T08:52:40;26.50;27.10
80230;DHT22;69540;42.136;24.742;2023-10-08T08:55:07;26.50;26.20
80230;DHT22;69540;42.136;24.742;2023-10-08T08:57:42;26.50;26.30
80230;DHT22;69540;42.136;24.742;2023-10-08T09:00:12;26.50;26.30
80230;DHT22;69540;42.136;24.742;2023-10-08T09:02:39;26.50;26.30
80230;DHT22;69540;42.136;24.742;2023-10-08T09:05:05;26.50;26.30
80230;DHT22;69540;42.136;24.742;2023-10-08T09:07:59;26.50;26.30
80230;DHT22;69540;42.136;24.742;2023-10-08T09:10:29;26.50;26.30
80230;DHT22;69540;42.136;24.742;2023-10-08T09:12:56;26.50;26.30
80230;DHT22;69540;42.136;24.742;2023-10-08T09:15:26;26.50;26.30
80230;DHT22;69540;42.136;24.742;2023-10-08T09:17:58;26.50;26.30
80230;DHT22;69540;42.136;24.742;2023-10-08T09:20:28;26.50;26.30
80230;DHT22;69540;42.136;24.742;2023-10-08T09:25:38;26.60;26.30
80230;DHT22;69540;42.136;24.742;2023-10-08T09:28:04;26.50;26.30
80230;DHT22;69540;42.136;24.742;2023-10-08T09:30:35;26.50;26.30
80230;DHT22;69540;42.136;24.742;2023-10-08T09:33:08;26.50;26.30
80230;DHT22;69540;42.136;24.742;2023-10-08T09:35:34;26.50;26.30
80230;DHT22;69540;42.136;24.742;2023-10-08T09:38:03;26.50;26.30
80230;DHT22;69540;42.136;24.742;2023-10-08T09:40:29;26.50;26.20
80230;DHT22;69540;42.136;24.742;2023-10-08T09:42:55;26.50;26.30
80230;DHT22;69540;42.136;24.742;2023-10-08T09:45:21;26.50;26.30
80230;DHT22;69540;42.136;24.742;2023-10-08T09:47:53;26.50;26.30
80230;DHT22;69540;42.136;24.742;2023-10-08T09:50:27;26.50;26.30
80230;DHT22;69540;42.136;24.742;2023-10-08T09:53:12;26.50;26.40
80230;DHT22;69540;42.136;24.742;2023-10-08T09:55:57;26.60;26.50
80230;DHT22;69540;42.136;24.742;2023-10-08T09:58:27;26.60;26.50
80230;DHT22;69540;42.136;24.742;2023-10-08T10:00:56;26.50;26.40
80230;DHT22;69540;42.136;24.742;2023-10-08T10:03:24;26.50;26.40
80230;DHT22;69540;42.136;24.742;2023-10-08T10:05:51;26.50;26.40
80230;DHT22;69540;42.136;24.742;2023-10-08T10:08:17;26.50;26.50
80230;DHT22;69540;42.136;24.742;2023-10-08T10:10:43;26.60;26.50
80230;DHT22;69540;42.136;24.742;2023-10-08T10:13:16;26.50;26.40
80230;DHT22;69540;42.136;24.742;2023-10-08T10:15:44;26.60;26.50
80230;DHT22;69540;42.136;24.742;2023-10-08T10:18:35;26.50;26.50
80230;DHT22;69540;42.136;24.742;2023-10-08T10:23:40;26.50;26.70
80230;DHT22;69540;42.136;24.742;2023-10-08T10:26:30;26.50;26.50
80230;DHT22;69540;42.136;24.742;2023-10-08T10:31:44;26.50;26.50
80230;DHT22;69540;42.136;24.742;2023-10-08T10:34:16;26.50;26.50
80230;DHT22;69540;42.136;24.742;2023-10-08T10:36:43;26.50;26.50
80230;DHT22;69540;42.136;24.742;2023-10-08T10:39:10;26.50;26.50
80230;DHT22;69540;42.136;24.742;2023-10-08T10:41:46;26.60;26.70
80230;DHT22;69540;42.136;24.742;2023-10-08T10:44:15;26.50;26.50
80230;DHT22;69540;42.136;24.742;2023-10-08T10:46:46;26.50;26.60
80230;DHT22;69540;42.136;24.742;2023-10-08T10:49:23;26.50;26.60
80230;DHT22;69540;42.136;24.742;2023-10-08T10:51:56;26.60;26.60
80230;DHT22;69540;42.136;24.742;2023-10-08T10:54:29;26.50;26.60
80230;DHT22;69540;42.136;24.742;2023-10-08T10:57:01;26.60;26.60
80230;DHT22;69540;42.136;24.742;2023-10-08T10:59:34;26.50;26.60
80230;DHT22;69540;42.136;24.742;2023-10-08T11:02:06;26.50;27.40
80230;DHT22;69540;42.136;24.742;2023-10-08T11:04:32;26.50;26.60
80230;DHT22;69540;42.136;24.742;2023-10-08T11:06:59;26.50;26.60
80230;DHT22;69540;42.136;24.742;2023-10-08T11:09:26;26.60;26.80
80230;DHT22;69540;42.136;24.742;2023-10-08T11:12:03;26.50;26.70
80230;DHT22;69540;42.136;24.742;2023-10-08T11:14:38;26.50;26.70
80230;DHT22;69540;42.136;24.742;2023-10-08T11:17:16;26.50;26.70
80230;DHT22;69540;42.136;24.742;2023-10-08T11:19:44;26.60;26.80
80230;DHT22;69540;42.136;24.742;2023-10-08T11:22:14;26.60;26.80
80230;DHT22;69540;42.136;24.742;2023-10-08T11:24:44;26.50;26.70
80230;DHT22;69540;42.136;24.742;2023-10-08T11:27:14;26.60;26.80
80230;DHT22;69540;42.136;24.742;2023-10-08T11:29:46;26.50;26.70
80230;DHT22;69540;42.136;24.742;2023-10-08T11:32:13;26.60;26.80
80230;DHT22;69540;42.136;24.742;2023-10-08T11:34:41;26.60;26.80
80230;DHT22;69540;42.136;24.742;2023-10-08T11:37:07;26.50;26.80
80230;DHT22;69540;42.136;24.742;2023-10-08T11:39:51;26.60;26.80
80230;DHT22;69540;42.136;24.742;2023-10-08T11:42:18;26.60;26.80
80230;DHT22;69540;42.136;24.742;2023-10-08T11:45:02;26.60;26.80
80230;DHT22;69540;42.136;24.742;2023-10-08T11:47:53;26.50;26.80
80230;DHT22;69540;42.136;24.742;2023-10-08T11:50:27;26.60;26.80
80230;DHT22;69540;42.136;24.742;2023-10-08T11:52:58;26.60;26.90
80230;DHT22;69540;42.136;24.742;2023-10-08T11:55:27;26.50;26.80
80230;DHT22;69540;42.136;24.742;2023-10-08T11:57:53;26.60;26.90
80230;DHT22;69540;42.136;24.742;2023-10-08T12:00:19;26.60;26.90
80230;DHT22;69540;42.136;24.742;2023-10-08T12:02:47;26.60;26.90
80230;DHT22;69540;42.136;24.742;2023-10-08T12:05:13;26.60;26.90
80230;DHT22;69540;42.136;24.742;2023-10-08T12:07:47;26.60;26.90
80230;DHT22;69540;42.136;24.742;2023-10-08T12:10:19;26.60;26.90
80230;DHT22;69540;42.136;24.742;2023-10-08T12:12:54;26.60;26.90
80230;DHT22;69540;42.136;24.742;2023-10-08T12:15:22;26.60;26.90
80230;DHT22;69540;42.136;24.742;2023-10-08T12:17:52;26.60;26.90
80230;DHT22;69540;42.136;24.742;2023-10-08T12:20:37;26.60;26.90
80230;DHT22;69540;42.136;24.742;2023-10-08T12:23:06;26.60;26.90
80230;DHT22;69540;42.136;24.742;2023-10-08T12:25:38;26.60;26.90
80230;DHT22;69540;42.136;24.742;2023-10-08T12:28:04;26.60;26.90
80230;DHT22;69540;42.136;24.742;2023-10-08T12:30:31;26.60;27.00
80230;DHT22;69540;42.136;24.742;2023-10-08T12:33:00;26.60;27.00
80230;DHT22;69540;42.136;24.742;2023-10-08T12:35:27;26.60;27.00
80230;DHT22;69540;42.136;24.742;2023-10-08T12:37:55;26.60;27.00
80230;DHT22;69540;42.136;24.742;2023-10-08T12:40:20;26.60;27.00
80230;DHT22;69540;42.136;24.742;2023-10-08T12:42:52;26.70;27.00
80230;DHT22;69540;42.136;24.742;2023-10-08T12:45:18;26.70;27.00
80230;DHT22;69540;42.136;24.742;2023-10-08T12:47:55;26.70;27.00
80230;DHT22;69540;42.136;24.742;2023-10-08T12:50:23;26.70;27.00
80230;DHT22;69540;42.136;24.742;2023-10-08T12:52:55;26.70;27.00
80230;DHT22;69540;42.136;24.742;2023-10-08T12:55:22;26.70;27.00
80230;DHT22;69540;42.136;24.742;2023-10-08T12:57:51;26.70;27.00
80230;DHT22;69540;42.136;24.742;2023-10-08T13:00:24;26.70;27.00
80230;DHT22;69540;42.136;24.742;2023-10-08T13:02:50;26.70;27.00
80230;DHT22;69540;42.136;24.742;2023-10-08T13:05:21;26.80;27.00
80230;DHT22;69540;42.136;24.742;2023-10-08T13:07:56;26.80;27.00
80230;DHT22;69540;42.136;24.742;2023-10-08T13:10:23;26.80;27.00
80230;DHT22;69540;42.136;24.742;2023-10-08T13:12:49;26.80;27.00
80230;DHT22;69540;42.136;24.742;2023-10-08T13:15:15;26.80;27.00
80230;DHT22;69540;42.136;24.742;2023-10-08T13:17:40;26.80;27.00
80230;DHT22;69540;42.136;24.742;2023-10-08T13:20:09;26.80;27.00
80230;DHT22;69540;42.136;24.742;2023-10-08T13:22:39;26.80;27.00
80230;DHT22;69540;42.136;24.742;2023-10-08T13:25:05;26.80;27.00
80230;DHT22;69540;42.136;24.742;2023-10-08T13:27:31;26.80;27.10
80230;DHT22;69540;42.136;24.742;2023-10-08T13:29:57;26.80;27.00
80230;DHT22;69540;42.136;24.742;2023-10-08T13:32:24;26.80;27.10
80230;DHT22;69540;42.136;24.742;2023-10-08T13:34:50;26.80;27.00
80230;DHT22;69540;42.136;24.742;2023-10-08T13:37:15;26.80;27.00
80230;DHT22;69540;42.136;24.742;2023-10-08T13:39:41;26.80;27.10
80230;DHT22;69540;42.136;24.742;2023-10-08T13:42:07;26.80;27.10
80230;DHT22;69540;42.136;24.742;2023-10-08T13:44:33;26.80;27.10
80230;DHT22;69540;42.136;24.742;2023-10-08T13:47:00;26.80;27.10
80230;DHT22;69540;42.136;24.742;2023-10-08T13:49:31;26.80;27.10
80230;DHT22;69540;42.136;24.742;2023-10-08T13:51:57;26.80;27.10
80230;DHT22;69540;42.136;24.742;2023-10-08T13:54:24;26.90;27.10
80230;DHT22;69540;42.136;24.742;2023-10-08T13:56:55;26.80;27.10
80230;DHT22;69540;42.136;24.742;2023-10-08T13:59:21;26.80;27.10
80230;DHT22;69540;42.136;24.742;2023-10-08T14:01:50;26.80;27.20
80230;DHT22;69540;42.136;24.742;2023-10-08T14:04:20;26.80;27.20
80230;DHT22;69540;42.136;24.742;2023-10-08T14:06:51;26.80;27.10
80230;DHT22;69540;42.136;24.742;2023-10-08T14:09:19;26.80;27.20
80230;DHT22;69540;42.136;24.742;2023-10-08T14:11:56;26.80;27.20
80230;DHT22;69540;42.136;24.742;2023-10-08T14:14:22;26.80;27.20
80230;DHT22;69540;42.136;24.742;2023-10-08T14:16:49;26.80;27.20
80230;DHT22;69540;42.136;24.742;2023-10-08T14:19:19;26.80;27.20
80230;DHT22;69540;42.136;24.742;2023-10-08T14:21:53;26.80;27.20
80230;DHT22;69540;42.136;24.742;2023-10-08T14:24:25;26.80;27.20
80230;DHT22;69540;42.136;24.742;2023-10-08T14:26:55;26.80;27.20
80230;DHT22;69540;42.136;24.742;2023-10-08T14:29:22;26.80;27.20
80230;DHT22;69540;42.136;24.742;2023-10-08T14:31:52;26.80;27.20
80230;DHT22;69540;42.136;24.742;2023-10-08T14:34:21;26.80;27.30
80230;DHT22;69540;42.136;24.742;2023-10-08T14:37:07;26.80;27.20
80230;DHT22;69540;42.136;24.742;2023-10-08T14:39:51;26.80;27.30
80230;DHT22;69540;42.136;24.742;2023-10-08T14:42:35;26.80;27.30
80230;DHT22;69540;42.136;24.742;2023-10-08T14:45:20;26.80;27.40
80230;DHT22;69540;42.136;24.742;2023-10-08T14:47:49;26.80;27.40
80230;DHT22;69540;42.136;24.742;2023-10-08T14:50:15;26.70;27.30
80230;DHT22;69540;42.136;24.742;2023-10-08T14:52:46;26.70;27.30
80230;DHT22;69540;42.136;24.742;2023-10-08T14:55:12;26.80;28.20
80230;DHT22;69540;42.136;24.742;2023-10-08T14:57:47;26.80;27.30
80230;DHT22;69540;42.136;24.742;2023-10-08T15:00:12;26.80;27.40
80230;DHT22;69540;42.136;24.742;2023-10-08T15:02:39;26.80;27.30
80230;DHT22;69540;42.136;24.742;2023-10-08T15:05:05;26.80;27.30
80230;DHT22;69540;42.136;24.742;2023-10-08T15:07:32;26.80;27.30
80230;DHT22;69540;42.136;24.742;2023-10-08T15:09:58;26.80;27.30
80230;DHT22;69540;42.136;24.742;2023-10-08T15:12:29;26.80;27.30
80230;DHT22;69540;42.136;24.742;2023-10-08T15:15:00;26.80;27.30
80230;DHT22;69540;42.136;24.742;2023-10-08T15:17:27;26.80;27.30
80230;DHT22;69540;42.136;24.742;2023-10-08T15:19:54;26.80;27.30
80230;DHT22;69540;42.136;24.742;2023-10-08T15:22:22;26.80;27.40
80230;DHT22;69540;42.136;24.742;2023-10-08T15:24:47;26.80;27.30
80230;DHT22;69540;42.136;24.742;2023-10-08T15:27:13;26.80;27.40
80230;DHT22;69540;42.136;24.742;2023-10-08T15:29:38;26.80;27.30
80230;DHT22;69540;42.136;24.742;2023-10-08T15:32:04;26.80;27.40
80230;DHT22;69540;42.136;24.742;2023-10-08T15:34:31;26.80;27.30
80230;DHT22;69540;42.136;24.742;2023-10-08T15:36:58;26.80;27.30
80230;DHT22;69540;42.136;24.742;2023-10-08T15:39:23;26.80;27.40
80230;DHT22;69540;42.136;24.742;2023-10-08T15:41:50;26.80;27.40
80230;DHT22;69540;42.136;24.742;2023-10-08T15:44:19;26.80;27.40
80230;DHT22;69540;42.136;24.742;2023-10-08T15:46:48;26.80;27.40
80230;DHT22;69540;42.136;24.742;2023-10-08T15:49:15;26.70;27.30
80230;DHT22;69540;42.136;24.742;2023-10-08T15:51:40;26.70;27.30
80230;DHT22;69540;42.136;24.742;2023-10-08T15:54:06;26.80;27.40
80230;DHT22;69540;42.136;24.742;2023-10-08T15:56:32;26.70;27.40